createdAt,value
2022-08-28T00:00:29.550Z,61.90
2022-08-28T00:02:58.079Z,61.70
2022-08-28T00:05:28.479Z,61.50
2022-08-28T00:07:55.459Z,61.50
2022-08-28T00:10:24.021Z,61.50
2022-08-28T00:12:52.233Z,61.40
2022-08-28T00:15:22.750Z,61.30
2022-08-28T00:17:49.564Z,61.50
2022-08-28T00:20:19.917Z,61.50
2022-08-28T00:22:48.555Z,61.50
2022-08-28T00:25:19.973Z,61.30
2022-08-28T00:27:52.562Z,61.20
2022-08-28T00:30:26.077Z,61.20
2022-08-28T00:32:54.321Z,61.30
2022-08-28T00:35:23.722Z,61.30
2022-08-28T00:37:51.098Z,61.30
2022-08-28T00:40:29.994Z,61.20
2022-08-28T00:43:02.571Z,61.20
2022-08-28T00:45:30.788Z,61.10
2022-08-28T00:47:58.466Z,61.00
2022-08-28T00:50:50.373Z,61.00
2022-08-28T00:53:17.345Z,61.00
2022-08-28T00:55:46.454Z,60.90
2022-08-28T00:58:13.784Z,60.90
2022-08-28T01:00:41.921Z,60.90
2022-08-28T01:03:08.998Z,61.00
2022-08-28T01:05:36.364Z,61.00
2022-08-28T01:08:04.459Z,61.10
2022-08-28T01:10:34.826Z,61.00
2022-08-28T01:13:02.979Z,61.10
2022-08-28T01:15:33.574Z,61.20
2022-08-28T01:18:11.941Z,61.20
2022-08-28T01:20:46.512Z,61.10
2022-08-28T01:23:21.388Z,61.00
2022-08-28T01:25:48.149Z,61.10
2022-08-28T01:28:15.635Z,61.10
2022-08-28T01:30:45.307Z,61.10
2022-08-28T01:33:14.425Z,61.10
2022-08-28T01:35:44.952Z,61.10
2022-08-28T01:38:12.129Z,61.00
2022-08-28T01:40:48.183Z,61.00
2022-08-28T01:43:18.426Z,61.20
2022-08-28T01:45:53.318Z,61.20
2022-08-28T01:48:22.557Z,61.40
2022-08-28T01:50:50.557Z,61.30
2022-08-28T01:53:19.847Z,61.30
2022-08-28T01:55:53.221Z,61.20
2022-08-28T01:58:20.830Z,61.30
2022-08-28T02:00:48.216Z,61.20
2022-08-28T02:03:15.743Z,61.20
2022-08-28T02:05:44.043Z,61.20
2022-08-28T02:08:10.966Z,61.20
2022-08-28T02:10:40.062Z,61.30
2022-08-28T02:13:08.137Z,61.20
2022-08-28T02:15:36.473Z,61.20
2022-08-28T02:18:03.448Z,61.20
2022-08-28T02:20:31.186Z,61.20
2022-08-28T02:22:58.431Z,61.30
2022-08-28T02:25:27.164Z,61.40
2022-08-28T02:27:54.595Z,61.30
2022-08-28T02:30:22.036Z,61.20
2022-08-28T02:32:50.116Z,61.20
2022-08-28T02:35:18.784Z,61.20
2022-08-28T02:37:46.096Z,61.20
2022-08-28T02:40:16.388Z,61.20
2022-08-28T02:42:44.248Z,61.20
2022-08-28T02:45:13.114Z,61.20
2022-08-28T02:47:42.437Z,61.10
2022-08-28T02:50:11.178Z,61.20
2022-08-28T02:52:38.480Z,61.20
2022-08-28T02:55:08.977Z,61.20
2022-08-28T02:57:36.347Z,61.40
2022-08-28T03:00:06.751Z,61.30
2022-08-28T03:02:33.680Z,61.30
2022-08-28T03:05:00.655Z,61.30
2022-08-28T03:07:29.345Z,61.30
2022-08-28T03:09:56.413Z,62.30
2022-08-28T03:12:24.085Z,61.50
2022-08-28T03:14:52.302Z,61.50
2022-08-28T03:17:20.059Z,61.60
2022-08-28T03:19:46.804Z,61.60
2022-08-28T03:22:13.710Z,61.60
2022-08-28T03:24:41.436Z,61.60
2022-08-28T03:27:08.940Z,62.40
2022-08-28T03:29:35.727Z,61.50
2022-08-28T03:32:02.710Z,61.60
2022-08-28T03:34:29.668Z,61.60
2022-08-28T03:36:56.538Z,62.40
2022-08-28T03:39:23.295Z,61.70
2022-08-28T03:41:51.575Z,61.80
2022-08-28T03:44:18.522Z,61.90
2022-08-28T03:46:45.301Z,61.90
2022-08-28T03:49:12.180Z,62.00
2022-08-28T03:51:41.038Z,62.00
2022-08-28T03:54:07.762Z,62.00
2022-08-28T03:56:34.556Z,62.10
2022-08-28T03:59:02.992Z,62.10
2022-08-28T04:01:30.174Z,62.20
2022-08-28T04:03:57.372Z,62.20
2022-08-28T04:06:24.541Z,62.20
2022-08-28T04:08:51.470Z,62.30
2022-08-28T04:11:18.584Z,62.40
2022-08-28T04:13:45.556Z,62.40
2022-08-28T04:16:16.654Z,62.40
2022-08-28T04:18:44.824Z,62.50
2022-08-28T04:21:15.027Z,62.40
2022-08-28T04:23:43.315Z,62.40
2022-08-28T04:26:18.484Z,62.50
2022-08-28T04:28:46.186Z,62.40
2022-08-28T04:31:13.168Z,62.60
2022-08-28T04:33:40.797Z,62.60
2022-08-28T04:36:13.632Z,62.60
2022-08-28T04:38:43.930Z,62.70
2022-08-28T04:41:12.970Z,62.70
2022-08-28T04:43:40.005Z,62.70
2022-08-28T04:46:11.403Z,62.60
2022-08-28T04:48:39.897Z,62.70
2022-08-28T04:51:09.343Z,62.70
2022-08-28T04:53:37.320Z,62.80
2022-08-28T04:56:06.942Z,62.80
2022-08-28T04:58:34.295Z,62.80
2022-08-28T05:01:12.717Z,62.60
2022-08-28T05:03:40.074Z,62.90
2022-08-28T05:06:07.768Z,62.90
2022-08-28T05:08:34.616Z,63.00
2022-08-28T05:11:30.700Z,63.00
2022-08-28T05:14:04.382Z,63.00
2022-08-28T05:16:32.094Z,62.90
2022-08-28T05:19:03.184Z,63.10
2022-08-28T05:21:30.015Z,62.90
2022-08-28T05:23:58.107Z,62.90
2022-08-28T05:26:27.004Z,63.10
2022-08-28T05:28:55.939Z,63.00
2022-08-28T05:31:23.718Z,63.10
2022-08-28T05:33:52.780Z,63.10
2022-08-28T05:36:22.609Z,63.20
2022-08-28T05:38:50.516Z,63.20
2022-08-28T05:41:22.674Z,63.20
2022-08-28T05:43:50.117Z,63.20
2022-08-28T05:46:17.910Z,63.20
2022-08-28T05:48:45.790Z,63.30
2022-08-28T05:51:15.047Z,63.40
2022-08-28T05:53:43.845Z,63.40
2022-08-28T05:56:12.923Z,63.40
2022-08-28T05:58:40.434Z,63.40
2022-08-28T06:01:12.641Z,63.50
2022-08-28T06:03:41.889Z,63.50
2022-08-28T06:06:10.144Z,63.50
2022-08-28T06:08:37.459Z,63.60
2022-08-28T06:11:05.599Z,63.60
2022-08-28T06:13:34.948Z,63.40
2022-08-28T06:16:03.319Z,63.40
2022-08-28T06:18:30.670Z,63.30
2022-08-28T06:21:02.714Z,63.40
2022-08-28T06:23:30.092Z,63.40
2022-08-28T06:25:57.229Z,63.50
2022-08-28T06:28:27.114Z,63.70
2022-08-28T06:31:18.542Z,63.90
2022-08-28T06:33:42.457Z,63.90
2022-08-28T06:36:09.247Z,64.00
2022-08-28T06:38:36.032Z,64.10
2022-08-28T06:41:07.957Z,64.10
2022-08-28T06:43:34.760Z,64.10
2022-08-28T06:46:02.198Z,64.00
2022-08-28T06:48:29.084Z,64.00
2022-08-28T06:50:57.692Z,64.10
2022-08-28T06:53:30.484Z,64.10
2022-08-28T06:55:58.893Z,64.20
2022-08-28T06:58:27.853Z,64.10
2022-08-28T07:01:07.281Z,64.20
2022-08-28T07:03:34.976Z,64.20
2022-08-28T07:06:04.714Z,64.30
2022-08-28T07:08:32.995Z,65.00
2022-08-28T07:11:09.222Z,64.30
2022-08-28T07:13:36.742Z,64.30
2022-08-28T07:16:03.861Z,64.30
2022-08-28T07:18:30.808Z,64.40
2022-08-28T07:21:00.474Z,64.40
2022-08-28T07:23:32.534Z,64.30
2022-08-28T07:26:00.318Z,64.30
2022-08-28T07:28:27.090Z,64.50
2022-08-28T07:31:06.570Z,64.50
2022-08-28T07:33:34.228Z,64.50
2022-08-28T07:36:01.767Z,64.50
2022-08-28T07:38:29.030Z,64.50
2022-08-28T07:40:55.845Z,64.60
2022-08-28T07:43:40.989Z,64.50
2022-08-28T07:46:11.560Z,64.50
2022-08-28T07:48:40.856Z,64.60
2022-08-28T07:51:09.328Z,64.60
2022-08-28T07:53:37.457Z,64.50
2022-08-28T07:56:05.681Z,64.30
2022-08-28T07:58:32.849Z,64.20
2022-08-28T08:01:01.242Z,64.30
2022-08-28T08:03:31.338Z,64.00
2022-08-28T08:06:03.458Z,63.90
2022-08-28T08:08:34.460Z,64.00
2022-08-28T08:11:07.773Z,63.80
2022-08-28T08:13:39.388Z,63.70
2022-08-28T08:16:13.004Z,63.70
2022-08-28T08:18:41.342Z,63.60
2022-08-28T08:21:12.306Z,63.40
2022-08-28T08:23:40.052Z,63.30
2022-08-28T08:26:10.046Z,62.90
2022-08-28T08:28:38.554Z,62.90
2022-08-28T08:31:07.011Z,62.90
2022-08-28T08:33:34.622Z,62.90
2022-08-28T08:36:01.480Z,62.90
2022-08-28T08:38:33.069Z,62.70
2022-08-28T08:41:02.004Z,62.40
2022-08-28T08:43:33.646Z,62.40
2022-08-28T08:46:00.490Z,62.40
2022-08-28T08:48:35.243Z,62.50
2022-08-28T08:51:06.764Z,62.40
2022-08-28T08:53:53.293Z,62.30
2022-08-28T08:56:21.874Z,62.20
2022-08-28T08:58:52.222Z,61.70
2022-08-28T09:01:34.398Z,61.50
2022-08-28T09:04:49.087Z,61.10
2022-08-28T09:07:27.795Z,61.10
2022-08-28T09:09:56.350Z,61.20
2022-08-28T09:12:44.005Z,61.00
2022-08-28T09:15:37.349Z,60.70
2022-08-28T09:18:10.767Z,60.60
2022-08-28T09:20:37.652Z,60.50
2022-08-28T09:23:12.419Z,60.70
2022-08-28T09:25:50.929Z,60.60
2022-08-28T09:28:40.831Z,60.30
2022-08-28T09:31:16.100Z,60.20
2022-08-28T09:33:51.283Z,60.10
2022-08-28T09:36:25.899Z,59.90
2022-08-28T09:39:17.635Z,59.30
2022-08-28T09:42:21.492Z,58.70
2022-08-28T09:45:00.352Z,58.80
2022-08-28T09:48:00.541Z,59.10
2022-08-28T09:50:43.505Z,58.90
2022-08-28T09:53:10.208Z,58.90
2022-08-28T09:55:50.137Z,58.80
2022-08-28T09:58:18.944Z,58.60
2022-08-28T10:00:55.166Z,58.70
2022-08-28T10:03:43.849Z,58.70
2022-08-28T10:06:32.081Z,58.40
2022-08-28T10:09:40.524Z,58.00
2022-08-28T10:12:34.643Z,58.00
2022-08-28T10:15:11.882Z,57.50
2022-08-28T10:17:57.528Z,57.70
2022-08-28T10:20:44.871Z,57.40
2022-08-28T10:23:24.724Z,57.50
2022-08-28T10:26:21.800Z,57.50
2022-08-28T10:28:55.607Z,57.60
2022-08-28T10:31:25.136Z,57.60
2022-08-28T10:34:02.505Z,57.90
2022-08-28T10:36:34.652Z,58.10
2022-08-28T10:39:20.332Z,58.00
2022-08-28T10:41:51.767Z,57.30
2022-08-28T10:44:23.715Z,57.30
2022-08-28T10:46:53.725Z,57.20
2022-08-28T10:49:37.411Z,57.00
2022-08-28T10:52:30.616Z,56.50
2022-08-28T10:55:14.426Z,56.40
2022-08-28T10:57:49.419Z,56.50
2022-08-28T11:00:22.147Z,56.30
2022-08-28T11:02:54.502Z,56.00
2022-08-28T11:05:28.179Z,56.00
2022-08-28T11:07:59.364Z,56.10
2022-08-28T11:10:28.911Z,56.10
2022-08-28T11:12:56.079Z,55.90
2022-08-28T11:15:36.366Z,55.80
2022-08-28T11:18:16.327Z,55.70
2022-08-28T11:21:04.051Z,55.50
2022-08-28T11:23:43.550Z,55.70
2022-08-28T11:26:14.152Z,55.50
2022-08-28T11:28:47.420Z,55.60
2022-08-28T11:31:28.706Z,55.70
2022-08-28T11:33:58.954Z,55.70
2022-08-28T11:36:28.194Z,55.80
2022-08-28T11:38:55.411Z,55.80
2022-08-28T11:41:28.958Z,55.30
2022-08-28T11:44:13.924Z,55.30
2022-08-28T11:46:52.465Z,55.30
2022-08-28T11:49:34.068Z,55.30
2022-08-28T11:52:23.702Z,55.30
2022-08-28T11:55:20.023Z,55.10
2022-08-28T11:57:52.829Z,54.80
2022-08-28T12:00:50.764Z,54.70
2022-08-28T12:03:44.770Z,54.60
2022-08-28T12:06:13.443Z,54.70
2022-08-28T12:08:51.159Z,55.00
2022-08-28T12:11:39.900Z,54.90
2022-08-28T12:14:11.633Z,54.40
2022-08-28T12:16:59.845Z,54.70
2022-08-28T12:19:55.646Z,54.50
2022-08-28T12:22:43.655Z,54.60
2022-08-28T12:25:31.098Z,54.50
2022-08-28T12:28:02.626Z,54.40
2022-08-28T12:30:41.233Z,54.40
2022-08-28T12:33:36.411Z,54.50
2022-08-28T12:36:06.051Z,54.40
2022-08-28T12:38:33.906Z,54.20
2022-08-28T12:41:02.771Z,53.80
2022-08-28T12:43:40.931Z,53.50
2022-08-28T12:46:31.120Z,53.30
2022-08-28T12:49:01.233Z,53.10
2022-08-28T12:51:33.999Z,53.20
2022-08-28T12:54:06.760Z,52.90
2022-08-28T12:56:36.492Z,52.90
2022-08-28T12:59:27.278Z,52.60
2022-08-28T13:01:54.807Z,52.00
2022-08-28T13:04:32.783Z,53.20
2022-08-28T13:07:07.598Z,52.60
2022-08-28T13:09:34.954Z,52.70
2022-08-28T13:12:01.888Z,52.70
2022-08-28T13:14:45.743Z,52.60
2022-08-28T13:17:15.039Z,52.30
2022-08-28T13:19:42.105Z,52.30
2022-08-28T13:22:33.426Z,52.00
2022-08-28T13:25:02.608Z,51.90
2022-08-28T13:27:29.659Z,52.10
2022-08-28T13:30:08.746Z,51.90
2022-08-28T13:32:38.959Z,51.20
2022-08-28T13:35:23.002Z,51.40
2022-08-28T13:37:55.688Z,51.40
2022-08-28T13:40:57.060Z,51.80
2022-08-28T13:43:26.711Z,51.80
2022-08-28T13:45:53.865Z,51.90
2022-08-28T13:48:25.850Z,51.60
2022-08-28T13:50:58.543Z,51.30
2022-08-28T13:53:25.812Z,51.30
2022-08-28T13:55:52.655Z,52.10
2022-08-28T13:58:19.832Z,51.30
2022-08-28T14:00:49.014Z,51.40
2022-08-28T14:03:35.328Z,51.20
2022-08-28T14:06:11.696Z,51.00
2022-08-28T14:08:40.708Z,51.00
2022-08-28T14:11:08.365Z,50.80
2022-08-28T14:13:40.304Z,50.70
2022-08-28T14:16:16.712Z,50.90
2022-08-28T14:18:43.611Z,50.90
2022-08-28T14:21:10.360Z,50.80
2022-08-28T14:23:37.127Z,50.50
2022-08-28T14:26:05.798Z,50.20
2022-08-28T14:28:32.660Z,49.90
2022-08-28T14:30:59.479Z,50.00
2022-08-28T14:33:26.294Z,50.10
2022-08-28T14:35:54.652Z,50.20
2022-08-28T14:38:21.558Z,50.10
2022-08-28T14:40:48.348Z,49.80
2022-08-28T14:43:16.299Z,49.70
2022-08-28T14:45:48.496Z,49.40
2022-08-28T14:48:17.247Z,49.10
2022-08-28T14:50:47.673Z,49.20
2022-08-28T14:53:15.230Z,49.30
2022-08-28T14:55:48.957Z,49.40
2022-08-28T14:58:17.418Z,49.20
2022-08-28T15:00:47.284Z,49.20
2022-08-28T15:03:14.931Z,49.00
2022-08-28T15:05:42.317Z,49.00
2022-08-28T15:08:11.152Z,49.10
2022-08-28T15:10:40.119Z,49.00
2022-08-28T15:13:07.813Z,49.00
2022-08-28T15:15:36.799Z,49.10
2022-08-28T15:18:03.620Z,49.20
2022-08-28T15:20:30.342Z,49.00
2022-08-28T15:22:57.441Z,49.20
2022-08-28T15:25:24.341Z,48.80
2022-08-28T15:27:51.598Z,48.50
2022-08-28T15:30:18.524Z,48.20
2022-08-28T15:32:47.306Z,48.20
2022-08-28T15:35:15.399Z,47.40
2022-08-28T15:37:42.414Z,47.10
2022-08-28T15:40:28.252Z,46.40
2022-08-28T15:42:55.116Z,45.50
2022-08-28T15:45:22.765Z,43.80
2022-08-28T15:47:49.633Z,42.70
2022-08-28T15:50:16.660Z,40.30
2022-08-28T15:52:46.773Z,39.20
2022-08-28T15:55:13.949Z,38.40
2022-08-28T15:57:41.264Z,38.70
2022-08-28T16:00:10.467Z,39.20
2022-08-28T16:02:37.583Z,40.10
2022-08-28T16:05:05.060Z,41.00
2022-08-28T16:07:31.894Z,41.50
2022-08-28T16:09:58.641Z,42.10
2022-08-28T16:12:25.619Z,42.60
2022-08-28T16:14:52.428Z,43.00
2022-08-28T16:17:19.197Z,43.40
2022-08-28T16:19:46.855Z,43.90
2022-08-28T16:22:15.937Z,43.90
2022-08-28T16:24:44.352Z,44.10
2022-08-28T16:27:15.356Z,44.20
2022-08-28T16:29:44.432Z,44.40
2022-08-28T16:32:12.551Z,44.50
2022-08-28T16:34:40.023Z,44.70
2022-08-28T16:37:07.828Z,44.70
2022-08-28T16:39:35.711Z,45.00
2022-08-28T16:42:03.036Z,45.00
2022-08-28T16:44:30.002Z,45.20
2022-08-28T16:46:56.979Z,45.40
2022-08-28T16:49:24.605Z,45.60
2022-08-28T16:51:51.505Z,45.80
2022-08-28T16:54:18.477Z,45.90
2022-08-28T16:56:46.038Z,46.00
2022-08-28T16:59:16.463Z,46.20
2022-08-28T17:01:43.595Z,46.90
2022-08-28T17:04:10.528Z,45.80
2022-08-28T17:06:37.285Z,45.60
2022-08-28T17:09:04.281Z,45.50
2022-08-28T17:11:32.020Z,45.70
2022-08-28T17:14:00.415Z,45.90
2022-08-28T17:16:29.675Z,46.10
2022-08-28T17:18:56.851Z,46.30
2022-08-28T17:21:42.401Z,46.40
2022-08-28T17:24:12.498Z,46.30
2022-08-28T17:26:40.676Z,46.30
2022-08-28T17:29:07.584Z,46.40
2022-08-28T17:31:34.465Z,46.20
2022-08-28T17:34:01.371Z,46.20
2022-08-28T17:36:33.320Z,46.30
2022-08-28T17:39:02.125Z,46.40
2022-08-28T17:41:28.966Z,46.60
2022-08-28T17:43:55.762Z,46.60
2022-08-28T17:46:22.579Z,47.00
2022-08-28T17:48:55.835Z,46.90
2022-08-28T17:51:42.527Z,47.00
2022-08-28T17:54:18.528Z,47.10
2022-08-28T17:56:46.277Z,47.40
2022-08-28T17:59:14.372Z,47.50
2022-08-28T18:01:42.364Z,47.40
2022-08-28T18:04:09.550Z,47.40
2022-08-28T18:06:37.206Z,47.50
2022-08-28T18:09:05.688Z,47.60
2022-08-28T18:11:32.700Z,47.50
2022-08-28T18:13:59.837Z,47.40
2022-08-28T18:16:31.149Z,47.50
2022-08-28T18:18:59.483Z,47.60
2022-08-28T18:21:26.934Z,47.80
2022-08-28T18:23:53.754Z,47.80
2022-08-28T18:26:20.630Z,47.70
2022-08-28T18:28:47.458Z,47.80
2022-08-28T18:31:14.296Z,47.80
2022-08-28T18:33:41.397Z,47.80
2022-08-28T18:36:10.667Z,47.80
2022-08-28T18:38:37.532Z,47.90
2022-08-28T18:41:06.646Z,47.90
2022-08-28T18:43:33.747Z,48.00
2022-08-28T18:46:02.120Z,48.10
2022-08-28T18:48:29.450Z,48.10
2022-08-28T18:50:56.258Z,48.20
2022-08-28T18:53:23.941Z,48.30
2022-08-28T18:55:52.835Z,48.40
2022-08-28T18:58:21.734Z,48.50
2022-08-28T19:00:49.471Z,48.50
2022-08-28T19:03:16.272Z,48.60
2022-08-28T19:05:43.135Z,48.70
2022-08-28T19:08:10.013Z,48.90
2022-08-28T19:10:37.667Z,49.10
2022-08-28T19:13:05.821Z,49.50
2022-08-28T19:15:33.966Z,49.80
2022-08-28T19:18:01.326Z,49.90
2022-08-28T19:20:29.547Z,49.90
2022-08-28T19:23:01.860Z,50.10
2022-08-28T19:25:30.670Z,50.10
2022-08-28T19:27:59.009Z,50.20
2022-08-28T19:30:28.182Z,50.00
2022-08-28T19:32:55.182Z,50.10
2022-08-28T19:35:24.424Z,50.10
2022-08-28T19:37:53.020Z,49.90
2022-08-28T19:40:20.981Z,49.70
2022-08-28T19:42:49.752Z,49.40
2022-08-28T19:45:16.842Z,49.40
2022-08-28T19:47:43.644Z,49.40
2022-08-28T19:50:12.625Z,49.50
2022-08-28T19:52:40.252Z,49.60
2022-08-28T19:55:08.103Z,49.50
2022-08-28T19:57:35.363Z,49.50
2022-08-28T20:00:04.037Z,49.60
2022-08-28T20:02:30.937Z,49.80
2022-08-28T20:04:57.758Z,50.00
2022-08-28T20:07:25.001Z,50.30
2022-08-28T20:09:52.197Z,50.50
2022-08-28T20:12:19.316Z,50.60
2022-08-28T20:14:46.604Z,50.80
2022-08-28T20:17:13.981Z,51.00
2022-08-28T20:19:41.245Z,51.00
2022-08-28T20:22:08.051Z,51.20
2022-08-28T20:24:34.965Z,51.30
2022-08-28T20:27:02.986Z,51.70
2022-08-28T20:29:30.051Z,51.90
2022-08-28T20:31:57.115Z,52.00
2022-08-28T20:34:23.975Z,52.20
2022-08-28T20:36:51.256Z,52.30
2022-08-28T20:39:19.208Z,52.40
2022-08-28T20:41:46.717Z,52.50
2022-08-28T20:44:16.129Z,52.70
2022-08-28T20:46:43.132Z,52.80
2022-08-28T20:49:12.064Z,52.90
2022-08-28T20:52:01.712Z,53.10
2022-08-28T20:54:29.915Z,53.20
2022-08-28T20:56:59.204Z,53.50
2022-08-28T20:59:29.663Z,53.60
2022-08-28T21:02:05.457Z,53.60
2022-08-28T21:04:36.156Z,53.70
2022-08-28T21:07:03.468Z,53.80
2022-08-28T21:09:42.371Z,54.00
2022-08-28T21:12:17.774Z,54.10
2022-08-28T21:14:45.503Z,54.10
2022-08-28T21:17:22.655Z,54.20
2022-08-28T21:19:56.604Z,54.40
2022-08-28T21:22:23.491Z,54.50
2022-08-28T21:24:50.403Z,54.50
2022-08-28T21:27:18.477Z,54.50
2022-08-28T21:29:46.138Z,54.60
2022-08-28T21:32:13.649Z,54.80
2022-08-28T21:34:40.631Z,54.90
2022-08-28T21:37:07.521Z,55.00
2022-08-28T21:39:35.344Z,55.00
2022-08-28T21:42:02.143Z,55.20
2022-08-28T21:44:29.023Z,55.20
2022-08-28T21:46:55.934Z,55.30
2022-08-28T21:49:23.041Z,55.40
2022-08-28T21:51:51.713Z,55.50
2022-08-28T21:54:19.668Z,55.60
2022-08-28T21:56:46.607Z,55.50
2022-08-28T21:59:15.267Z,55.50
2022-08-28T22:01:42.271Z,55.60
2022-08-28T22:04:09.729Z,55.70
2022-08-28T22:06:36.922Z,55.80
2022-08-28T22:09:05.501Z,55.90
2022-08-28T22:11:33.579Z,56.00
2022-08-28T22:14:01.105Z,56.10
2022-08-28T22:16:28.366Z,56.20
2022-08-28T22:18:55.581Z,56.40
2022-08-28T22:21:43.323Z,56.50
2022-08-28T22:24:13.358Z,56.60
2022-08-28T22:26:40.889Z,56.80
2022-08-28T22:29:07.989Z,57.00
2022-08-28T22:31:35.352Z,57.10
2022-08-28T22:34:06.089Z,57.20
2022-08-28T22:36:33.301Z,57.30
2022-08-28T22:39:00.148Z,57.50
2022-08-28T22:41:27.281Z,57.60
2022-08-28T22:43:54.105Z,57.70
2022-08-28T22:46:21.307Z,57.70
2022-08-28T22:48:48.344Z,57.90
2022-08-28T22:51:18.308Z,57.90
2022-08-28T22:53:45.171Z,58.00
2022-08-28T22:56:12.465Z,58.20
2022-08-28T22:58:39.875Z,58.30
2022-08-28T23:01:15.074Z,58.50
2022-08-28T23:03:42.367Z,58.60
2022-08-28T23:06:09.276Z,58.60
2022-08-28T23:08:36.301Z,58.70
2022-08-28T23:11:03.662Z,58.80
2022-08-28T23:13:31.093Z,58.90
2022-08-28T23:15:58.688Z,59.00
2022-08-28T23:18:26.138Z,59.00
2022-08-28T23:20:55.270Z,59.20
2022-08-28T23:23:23.422Z,59.30
2022-08-28T23:25:52.559Z,59.30
2022-08-28T23:28:20.075Z,59.40
2022-08-28T23:30:49.575Z,59.60
2022-08-28T23:33:24.078Z,59.50
2022-08-28T23:35:52.045Z,59.80
2022-08-28T23:38:19.276Z,60.00
2022-08-28T23:40:48.035Z,60.20
2022-08-28T23:43:15.327Z,60.10
2022-08-28T23:45:43.770Z,60.20
2022-08-28T23:48:10.897Z,60.30
2022-08-28T23:50:39.874Z,60.40
2022-08-28T23:53:08.914Z,60.40
2022-08-28T23:55:36.371Z,60.60
2022-08-28T23:58:04.053Z,60.50
